Time;durP1;ratioP1;P1;durP2;ratioP2;P2;SDS_P1;SDS_P2;PMS_P1;PMS_P2;Temp;Humidity;BMP_temperature;BMP_pressure;BME280_temperature;BME280_humidity;BME280_pressure;Samples;Min_cycle;Max_cycle;Signal;HPM_P1;HPM_P2
2021/05/16 00:01:03;;;;;;;23.65;6.97;;;;;;;12.65;100.00;100690.34;1742793;82;20898;-84
2021/05/16 00:03:29;;;;;;;15.28;6.75;;;;;;;12.65;100.00;100685.73;1721237;82;21071;-84
2021/05/16 00:05:55;;;;;;;26.07;7.75;;;;;;;12.66;100.00;100686.55;1742840;82;21228;-84
2021/05/16 00:08:21;;;;;;;22.35;7.33;;;;;;;12.61;100.00;100681.13;1742749;82;20831;-83
2021/05/16 00:10:47;;;;;;;22.93;8.08;;;;;;;12.59;100.00;100676.02;1742565;82;20973;-84
2021/05/16 00:13:13;;;;;;;21.27;8.13;;;;;;;12.58;100.00;100674.91;1742642;82;21084;-83
2021/05/16 00:15:39;;;;;;;25.45;9.00;;;;;;;12.55;100.00;100670.05;1742999;82;21080;-84
2021/05/16 00:18:05;;;;;;;24.05;8.08;;;;;;;12.55;100.00;100673.56;1746761;81;21116;-84
2021/05/16 00:20:33;;;;;;;31.37;9.25;;;;;;;12.55;100.00;100670.05;1742784;82;21563;-84
2021/05/16 00:23:01;;;;;;;29.40;10.38;;;;;;;12.54;100.00;100680.06;1742811;82;21048;-84
2021/05/16 00:25:28;;;;;;;34.15;10.00;;;;;;;12.52;100.00;100680.86;1742847;82;21014;-84
2021/05/16 00:27:54;;;;;;;30.35;10.70;;;;;;;12.47;100.00;100686.27;1742936;82;21077;-84
2021/05/16 00:30:25;;;;;;;36.28;10.40;;;;;;;12.47;100.00;100683.55;1742975;82;21081;-83
2021/05/16 00:32:53;;;;;;;30.17;9.60;;;;;;;12.47;100.00;100687.09;1742682;82;21021;-83
2021/05/16 00:35:22;;;;;;;27.35;9.48;;;;;;;12.44;100.00;100692.20;1742771;82;21061;-84
2021/05/16 00:37:49;;;;;;;35.43;9.70;;;;;;;12.39;100.00;100686.27;1742889;82;21029;-84
2021/05/16 00:40:17;;;;;;;31.73;10.70;;;;;;;12.27;100.00;100685.73;1742585;82;21104;-83
2021/05/16 00:42:45;;;;;;;26.00;10.10;;;;;;;12.29;100.00;100680.84;1742786;82;21612;-84
2021/05/16 00:45:15;;;;;;;27.40;9.28;;;;;;;12.23;100.00;100688.13;1742343;82;21473;-84
2021/05/16 00:47:51;;;;;;;30.23;8.20;;;;;;;12.20;100.00;100685.97;1742575;82;21076;-83
2021/05/16 00:50:22;;;;;;;27.65;8.45;;;;;;;12.24;100.00;100679.52;1678098;85;21093;-83
2021/05/16 00:52:48;;;;;;;26.45;8.83;;;;;;;12.21;100.00;100686.80;1677948;85;21693;-84
2021/05/16 00:55:17;;;;;;;27.05;7.97;;;;;;;12.21;100.00;100691.66;1678262;85;21188;-83
2021/05/16 00:57:44;;;;;;;23.38;7.75;;;;;;;12.19;100.00;100697.06;1678186;85;21664;-84
2021/05/16 01:00:14;;;;;;;23.70;7.60;;;;;;;12.17;100.00;100688.41;1678511;84;21151;-82
2021/05/16 01:02:41;;;;;;;21.70;8.00;;;;;;;12.16;100.00;100680.84;1678076;85;21639;-83
2021/05/16 01:05:10;;;;;;;20.77;7.10;;;;;;;12.15;100.00;100690.58;1678207;84;21645;-83
2021/05/16 01:07:38;;;;;;;21.10;7.20;;;;;;;12.10;100.00;100685.97;1678269;84;21140;-83
2021/05/16 01:10:09;;;;;;;21.82;7.62;;;;;;;12.09;100.00;100681.66;1678142;85;21002;-83
2021/05/16 01:12:42;;;;;;;18.10;6.35;;;;;;;12.04;100.00;100681.64;1678369;85;20994;-83
2021/05/16 01:15:07;;;;;;;22.10;8.40;;;;;;;12.01;100.00;100682.17;1680300;84;21074;-83
2021/05/16 01:17:33;;;;;;;27.67;8.83;;;;;;;12.03;100.00;100678.13;1685827;85;21618;-82
2021/05/16 01:19:59;;;;;;;26.48;8.00;;;;;;;12.05;100.00;100690.00;1685789;85;21121;-83
2021/05/16 01:22:25;;;;;;;24.50;8.20;;;;;;;12.04;100.00;100687.84;1685690;85;21157;-83
2021/05/16 01:24:51;;;;;;;19.07;6.40;;;;;;;12.03;100.00;100689.48;1685426;85;20973;-83
2021/05/16 01:27:17;;;;;;;17.23;6.10;;;;;;;11.96;100.00;100681.61;1703754;82;20930;-83
2021/05/16 01:29:44;;;;;;;20.23;6.85;;;;;;;11.73;100.00;100698.25;1742652;82;20902;-83
2021/05/16 01:32:11;;;;;;;15.48;5.70;;;;;;;11.80;100.00;100694.78;1742333;82;21750;-82
2021/05/16 01:34:41;;;;;;;16.60;6.08;;;;;;;11.84;100.00;100693.16;1742363;82;21113;-83
2021/05/16 01:37:10;;;;;;;17.35;6.17;;;;;;;11.82;100.00;100688.56;1742470;82;21017;-82
2021/05/16 01:39:37;;;;;;;14.75;4.97;;;;;;;11.77;100.00;100691.27;1742543;82;21058;-83
2021/05/16 01:42:04;;;;;;;14.83;5.25;;;;;;;11.76;100.00;100695.83;1742455;82;21060;-83
2021/05/16 01:44:31;;;;;;;17.15;5.03;;;;;;;11.79;100.00;100695.33;1742414;82;21107;-83
2021/05/16 01:47:02;;;;;;;10.23;4.95;;;;;;;11.82;100.00;100697.50;1742449;82;21136;-83
2021/05/16 01:49:46;;;;;;;13.00;5.00;;;;;;;11.81;100.00;100698.55;1678254;85;21055;-83
2021/05/16 01:52:12;;;;;;;11.20;4.97;;;;;;;11.68;100.00;100697.71;1634316;86;21711;-82
2021/05/16 01:54:39;;;;;;;18.92;4.37;;;;;;;11.75;100.00;100698.80;1612575;87;20885;-82
2021/05/16 01:57:07;;;;;;;17.82;4.67;;;;;;;11.76;100.00;100698.53;1634073;87;21857;-82
2021/05/16 01:59:35;;;;;;;9.78;4.22;;;;;;;11.78;100.00;100693.69;1634091;87;21276;-83
2021/05/16 02:02:03;;;;;;;16.90;4.83;;;;;;;11.80;100.00;100706.94;1634407;87;21033;-83
2021/05/16 02:04:32;;;;;;;12.75;4.92;;;;;;;11.80;100.00;100700.98;1634328;87;21072;-83
2021/05/16 02:06:59;;;;;;;10.85;4.37;;;;;;;11.76;100.00;100707.17;1634281;87;21107;-83
2021/05/16 02:09:27;;;;;;;12.18;4.05;;;;;;;11.75;100.00;100702.31;1634076;87;21123;-83
2021/05/16 02:11:54;;;;;;;12.28;4.03;;;;;;;11.80;100.00;100708.28;1634170;87;21569;-83
2021/05/16 02:14:29;;;;;;;11.83;4.85;;;;;;;11.86;100.00;100706.45;1627152;87;21084;-83
2021/05/16 02:16:57;;;;;;;12.58;4.05;;;;;;;11.88;100.00;100713.72;1602910;89;21053;-82
2021/05/16 02:19:23;;;;;;;10.03;4.37;;;;;;;11.96;100.00;100709.97;1602593;89;21698;-82
2021/05/16 02:21:50;;;;;;;7.90;4.17;;;;;;;12.05;100.00;100711.06;1602629;88;21117;-83
2021/05/16 02:24:18;;;;;;;12.30;4.65;;;;;;;12.12;100.00;100714.05;1602360;88;21028;-82
2021/05/16 02:26:45;;;;;;;12.82;4.67;;;;;;;12.22;100.00;100715.44;1602596;88;21068;-83
2021/05/16 02:29:12;;;;;;;11.73;4.45;;;;;;;12.34;100.00;100719.23;1602444;88;21557;-83
2021/05/16 02:31:38;;;;;;;14.03;4.92;;;;;;;12.45;100.00;100723.58;1602714;88;21044;-83
2021/05/16 02:34:05;;;;;;;10.30;4.75;;;;;;;12.52;100.00;100725.47;1602676;89;21531;-83
2021/05/16 02:36:32;;;;;;;7.55;3.80;;;;;;;12.57;100.00;100721.97;1602200;88;21013;-83
2021/05/16 02:38:58;;;;;;;10.18;4.55;;;;;;;12.75;100.00;100727.38;1602196;88;21119;-83
2021/05/16 02:41:24;;;;;;;12.47;5.42;;;;;;;12.89;100.00;100725.20;1602584;88;21091;-83
2021/05/16 02:43:50;;;;;;;14.58;5.67;;;;;;;13.01;100.00;100722.76;1602704;88;21057;-83
2021/05/16 02:46:16;;;;;;;14.73;5.90;;;;;;;13.01;100.00;100723.56;1622352;87;21748;-83
2021/05/16 02:48:42;;;;;;;18.30;5.55;;;;;;;13.04;100.00;100728.43;1702010;81;21010;-83
2021/05/16 02:51:09;;;;;;;13.40;5.05;;;;;;;13.10;100.00;100727.88;1742331;82;21065;-83
2021/05/16 02:53:35;;;;;;;11.90;4.90;;;;;;;13.15;100.00;100723.82;1742278;82;21510;-83
2021/05/16 02:56:01;;;;;;;14.98;5.58;;;;;;;13.18;100.00;100721.37;1738849;82;21017;-84
2021/05/16 02:58:27;;;;;;;16.85;5.65;;;;;;;13.09;100.00;100718.16;1742537;82;21081;-84
2021/05/16 03:00:54;;;;;;;10.03;4.90;;;;;;;13.27;100.00;100721.66;1742336;82;21029;-84
2021/05/16 03:03:20;;;;;;;16.97;5.20;;;;;;;13.29;100.00;100728.13;1742554;82;21450;-84
2021/05/16 03:05:46;;;;;;;14.28;5.10;;;;;;;13.38;100.00;100723.26;1742534;82;21057;-83
2021/05/16 03:08:12;;;;;;;15.63;5.30;;;;;;;13.44;100.00;100723.22;1738698;82;20973;-84
2021/05/16 03:10:38;;;;;;;13.28;4.72;;;;;;;13.59;100.00;100716.42;1741355;82;21560;-83
2021/05/16 03:13:05;;;;;;;10.35;5.10;;;;;;;13.77;100.00;100722.56;1741936;82;21557;-83
2021/05/16 03:15:32;;;;;;;15.03;5.95;;;;;;;13.98;100.00;100714.34;1737290;82;21049;-84
2021/05/16 03:17:59;;;;;;;17.62;6.12;;;;;;;14.17;100.00;100711.22;1732028;82;21038;-83
2021/05/16 03:20:25;;;;;;;14.13;5.20;;;;;;;14.53;100.00;100709.13;1727780;82;21574;-84
2021/05/16 03:22:51;;;;;;;19.00;6.30;;;;;;;15.10;100.00;100714.05;1727658;83;21058;-84
2021/05/16 03:25:17;;;;;;;19.32;5.70;;;;;;;15.17;100.00;100709.06;1727802;83;21078;-84
2021/05/16 03:27:43;;;;;;;15.35;6.40;;;;;;;15.17;100.00;100709.06;1727831;83;21600;-84
2021/05/16 03:30:11;;;;;;;16.35;6.17;;;;;;;16.25;100.00;100716.16;1727730;82;20926;-84
2021/05/16 03:32:40;;;;;;;24.87;6.62;;;;;;;16.29;100.00;100709.58;1727678;83;21045;-84
2021/05/16 03:35:08;;;;;;;16.93;6.28;;;;;;;17.05;100.00;100712.17;1727205;82;21093;-84
2021/05/16 03:37:34;;;;;;;17.23;5.67;;;;;;;17.15;100.00;100710.08;1727736;82;21046;-84
2021/05/16 03:40:00;;;;;;;20.35;6.60;;;;;;;17.88;100.00;100709.73;1727573;83;20931;-84
2021/05/16 03:42:26;;;;;;;15.28;5.97;;;;;;;18.60;100.00;100707.50;1727720;83;20883;-84
2021/05/16 03:44:53;;;;;;;16.15;5.85;;;;;;;18.91;100.00;100701.84;1727572;83;21388;-84
2021/05/16 03:47:20;;;;;;;20.92;6.25;;;;;;;18.69;100.00;100698.56;1727847;83;21081;-84
2021/05/16 03:49:46;;;;;;;16.40;7.00;;;;;;;19.20;100.00;100700.78;1727739;83;21086;-83
2021/05/16 03:52:12;;;;;;;20.17;6.08;;;;;;;19.73;100.00;100699.84;1727958;83;20958;-84
2021/05/16 03:54:40;;;;;;;20.15;6.25;;;;;;;20.13;100.00;100692.90;1728021;83;21548;-85
2021/05/16 03:57:06;;;;;;;20.82;6.17;;;;;;;20.11;100.00;100691.61;1727500;82;21061;-84
2021/05/16 03:59:32;;;;;;;19.00;5.92;;;;;;;20.66;100.00;100694.26;1727833;83;21233;-84
2021/05/16 04:01:58;;;;;;;24.10;6.33;;;;;;;21.07;96.86;100696.40;1727590;83;20958;-85
2021/05/16 04:04:23;;;;;;;33.38;7.85;;;;;;;20.94;92.04;100690.55;1727596;82;20910;-85
2021/05/16 04:06:49;;;;;;;31.70;7.65;;;;;;;21.02;95.12;100683.67;1727844;83;21103;-84
2021/05/16 04:09:15;;;;;;;32.50;7.85;;;;;;;21.30;91.72;100680.51;1727901;83;21056;-84
2021/05/16 04:11:41;;;;;;;36.17;8.48;;;;;;;21.45;88.31;100681.91;1727563;83;21155;-84
2021/05/16 04:14:07;;;;;;;29.05;9.48;;;;;;;21.51;87.90;100683.33;1727795;83;20875;-84
2021/05/16 04:16:33;;;;;;;36.58;8.63;;;;;;;21.58;87.75;100688.28;1736902;82;21030;-85
2021/05/16 04:18:58;;;;;;;36.15;12.75;;;;;;;21.34;87.43;100684.19;1741002;81;20871;-85
2021/05/16 04:21:24;;;;;;;37.75;14.40;;;;;;;21.70;84.81;100680.93;1742636;82;20985;-85
2021/05/16 04:23:50;;;;;;;22.98;8.70;;;;;;;22.23;85.39;100676.67;1742271;82;21852;-85
2021/05/16 04:26:16;;;;;;;28.70;6.70;;;;;;;22.12;81.69;100677.39;1738823;82;20902;-85
2021/05/16 04:28:42;;;;;;;30.10;8.50;;;;;;;22.09;81.79;100677.52;1742165;82;21463;-85
2021/05/16 04:31:08;;;;;;;40.73;15.20;;;;;;;22.77;80.39;100672.30;1742511;82;20882;-84
2021/05/16 04:33:33;;;;;;;57.23;10.48;;;;;;;22.71;75.15;100668.97;1742281;82;20859;-85
2021/05/16 04:35:59;;;;;;;45.70;12.60;;;;;;;23.80;77.00;100673.50;1742778;82;21825;-85
2021/05/16 04:38:26;;;;;;;36.50;9.18;;;;;;;25.26;61.94;100678.06;1742537;82;20993;-84
2021/05/16 04:40:52;;;;;;;27.22;9.15;;;;;;;26.12;58.95;100685.55;1742358;82;21102;-84
2021/05/16 04:43:18;;;;;;;24.20;9.88;;;;;;;26.03;55.39;100691.30;1742299;82;21097;-85
2021/05/16 04:45:44;;;;;;;21.90;9.20;;;;;;;25.29;55.85;100682.88;1742233;82;20986;-85
2021/05/16 04:48:10;;;;;;;23.15;12.43;;;;;;;25.92;55.66;100687.50;1742225;82;21114;-85
2021/05/16 04:50:36;;;;;;;17.15;9.53;;;;;;;26.53;55.89;100685.17;1742463;82;21307;-85
2021/05/16 04:53:02;;;;;;;14.85;5.95;;;;;;;27.06;53.72;100682.55;1742350;82;20870;-85
2021/05/16 04:55:28;;;;;;;12.65;5.62;;;;;;;27.79;50.58;100683.33;1721612;82;21049;-85
2021/05/16 04:57:54;;;;;;;15.58;5.97;;;;;;;29.21;49.64;100673.61;1742588;82;21056;-85
2021/05/16 05:00:21;;;;;;;17.92;5.12;;;;;;;29.59;42.44;100680.61;1721433;82;21049;-84
2021/05/16 05:02:48;;;;;;;19.35;5.95;;;;;;;30.27;40.72;100680.19;1738664;82;21145;-85
2021/05/16 05:05:15;;;;;;;9.90;5.15;;;;;;;28.76;41.95;100683.88;1742430;82;21603;-85
2021/05/16 05:07:41;;;;;;;18.62;5.35;;;;;;;29.47;41.18;100685.67;1742287;82;21056;-85
2021/05/16 05:10:09;;;;;;;13.45;5.70;;;;;;;29.08;43.90;100684.20;1742638;82;20994;-85
2021/05/16 05:12:36;;;;;;;23.80;6.40;;;;;;;29.38;42.70;100684.02;1742433;82;21112;-84
2021/05/16 05:15:02;;;;;;;12.53;5.35;;;;;;;29.31;42.00;100682.59;1742490;82;21041;-84
2021/05/16 05:17:28;;;;;;;12.75;5.75;;;;;;;28.64;41.67;100680.80;1743062;82;21179;-84
2021/05/16 05:19:54;;;;;;;15.10;6.03;;;;;;;29.19;41.15;100681.52;1742266;82;20890;-85
2021/05/16 05:22:20;;;;;;;11.78;5.58;;;;;;;30.45;40.87;100699.11;1729007;82;20970;-85
2021/05/16 05:24:46;;;;;;;14.65;5.97;;;;;;;30.78;37.35;100700.78;1732330;82;21138;-85
2021/05/16 05:27:11;;;;;;;10.18;5.75;;;;;;;31.74;37.93;100698.34;1732646;82;20926;-85
2021/05/16 05:29:37;;;;;;;10.43;5.20;;;;;;;32.77;37.11;100703.50;1732156;82;20989;-84
2021/05/16 05:32:04;;;;;;;10.03;5.37;;;;;;;33.69;35.19;100699.73;1732486;82;20907;-84
2021/05/16 05:34:30;;;;;;;14.43;6.20;;;;;;;34.31;34.96;100699.20;1732535;82;21109;-85
2021/05/16 05:36:56;;;;;;;10.95;6.35;;;;;;;33.64;31.87;100695.20;1732590;82;21116;-86
2021/05/16 05:39:22;;;;;;;11.60;6.55;;;;;;;32.83;33.08;100694.67;1732276;82;21057;-85
2021/05/16 05:41:48;;;;;;;11.15;5.40;;;;;;;32.62;32.29;100695.61;1732600;82;20997;-84
2021/05/16 05:44:15;;;;;;;11.38;6.08;;;;;;;33.40;34.19;100687.23;1732590;82;20984;-84
2021/05/16 05:46:41;;;;;;;11.43;5.60;;;;;;;33.51;32.35;100696.91;1732455;82;21026;-84
2021/05/16 05:49:07;;;;;;;13.13;6.58;;;;;;;32.70;33.63;100693.77;1732695;82;21675;-85
2021/05/16 05:51:34;;;;;;;12.68;5.45;;;;;;;32.39;32.00;100686.38;1732842;82;20899;-85
2021/05/16 05:53:59;;;;;;;13.43;5.08;;;;;;;33.39;33.20;100692.03;1732611;82;21155;-84
2021/05/16 05:56:25;;;;;;;8.05;4.87;;;;;;;34.97;32.68;100687.23;1732516;82;21029;-84
2021/05/16 05:58:52;;;;;;;10.05;4.90;;;;;;;34.28;29.15;100688.06;1732631;82;20867;-84
2021/05/16 06:01:18;;;;;;;10.03;4.65;;;;;;;34.02;30.28;100686.77;1732642;82;21128;-81
2021/05/16 06:03:45;;;;;;;9.05;4.65;;;;;;;35.21;30.32;100689.45;1732071;82;21064;-80
2021/05/16 06:06:12;;;;;;;8.50;3.90;;;;;;;35.08;31.40;100688.48;1732521;82;21018;-79
2021/05/16 06:08:41;;;;;;;9.35;4.47;;;;;;;36.34;30.49;100677.84;1732430;82;21613;-80
2021/05/16 06:11:06;;;;;;;7.78;4.10;;;;;;;36.90;28.81;100679.75;1732487;82;21018;-80
2021/05/16 06:13:32;;;;;;;7.25;4.40;;;;;;;35.94;29.29;100673.06;1732385;82;21735;-81
2021/05/16 06:15:58;;;;;;;10.88;4.47;;;;;;;34.86;28.23;100674.83;1716213;82;20899;-80
2021/05/16 06:18:24;;;;;;;7.42;4.03;;;;;;;36.30;29.04;100663.10;1699923;83;20970;-80
2021/05/16 06:20:51;;;;;;;8.93;3.62;;;;;;;36.02;27.22;100669.48;1701849;84;21326;-81
2021/05/16 06:23:18;;;;;;;10.23;3.90;;;;;;;34.11;27.90;100670.30;1702022;84;21022;-81
2021/05/16 06:25:49;;;;;;;6.65;3.90;;;;;;;33.66;29.38;100674.00;1701779;84;21146;-81
2021/05/16 06:28:15;;;;;;;6.22;3.70;;;;;;;35.07;28.88;100676.50;1701982;83;21190;-81
2021/05/16 06:30:42;;;;;;;6.97;3.60;;;;;;;35.15;29.21;100678.55;1702299;83;21057;-81
2021/05/16 06:33:07;;;;;;;4.15;3.65;;;;;;;36.96;27.62;100668.94;1698448;84;20998;-80
2021/05/16 06:35:34;;;;;;;6.53;3.40;;;;;;;34.93;28.20;100675.30;1701868;83;20910;-80
2021/05/16 06:38:00;;;;;;;5.60;3.72;;;;;;;36.54;27.53;100676.41;1701467;84;21825;-80
2021/05/16 06:40:26;;;;;;;7.50;3.77;;;;;;;37.68;26.06;100669.88;1701588;84;21038;-81
2021/05/16 06:42:53;;;;;;;7.42;3.90;;;;;;;38.27;25.94;100664.94;1701766;84;21046;-81
2021/05/16 06:45:20;;;;;;;9.25;3.67;;;;;;;38.39;23.97;100662.17;1701722;84;21046;-81
2021/05/16 06:47:45;;;;;;;6.22;3.47;;;;;;;37.79;24.62;100668.95;1702082;83;20986;-80
2021/05/16 06:50:11;;;;;;;3.40;2.90;;;;;;;38.17;24.26;100666.86;1701880;83;21233;-81
2021/05/16 06:52:37;;;;;;;3.87;3.27;;;;;;;37.22;24.71;100666.31;1700842;84;21570;-80
2021/05/16 06:55:04;;;;;;;7.22;3.05;;;;;;;35.10;26.22;100668.64;1701744;84;20903;-81
2021/05/16 06:57:31;;;;;;;13.62;3.30;;;;;;;35.24;27.04;100665.59;1701984;83;21114;-81
2021/05/16 06:59:57;;;;;;;4.53;3.27;;;;;;;34.81;27.98;100662.08;1702007;84;21029;-81
2021/05/16 07:02:24;;;;;;;4.58;2.85;;;;;;;35.10;27.38;100664.44;1701669;84;21018;-81
2021/05/16 07:04:49;;;;;;;5.22;3.05;;;;;;;34.05;28.08;100653.18;1702026;83;21049;-80
2021/05/16 07:07:15;;;;;;;7.12;3.17;;;;;;;35.80;26.28;100652.32;1701313;83;20994;-81
2021/05/16 07:09:42;;;;;;;5.05;2.80;;;;;;;37.65;24.54;100646.86;1701561;83;20892;-81
2021/05/16 07:12:10;;;;;;;6.67;2.52;;;;;;;35.94;25.25;100642.20;1701753;83;21069;-81
2021/05/16 07:14:36;;;;;;;3.50;2.52;;;;;;;36.98;23.33;100640.42;1701729;83;21135;-80
2021/05/16 07:17:02;;;;;;;8.28;2.70;;;;;;;36.03;24.55;100638.00;1719798;82;21551;-81
2021/05/16 07:19:28;;;;;;;3.47;2.47;;;;;;;35.70;25.22;100642.09;1741069;82;20882;-82
2021/05/16 07:21:54;;;;;;;8.58;2.52;;;;;;;34.86;25.32;100641.80;1742429;82;21620;-81
2021/05/16 07:24:20;;;;;;;7.72;3.20;;;;;;;35.67;24.27;100633.94;1742066;82;20981;-81
2021/05/16 07:26:46;;;;;;;6.03;2.52;;;;;;;36.91;23.85;100631.53;1740948;82;21037;-81
2021/05/16 07:29:11;;;;;;;3.22;2.33;;;;;;;36.99;23.10;100624.50;1742483;82;20921;-81
2021/05/16 07:31:37;;;;;;;8.60;3.00;;;;;;;35.35;23.69;100634.54;1742678;82;20985;-81
2021/05/16 07:34:03;;;;;;;6.72;2.70;;;;;;;35.53;25.45;100624.38;1742703;81;20957;-81
2021/05/16 07:36:29;;;;;;;7.35;2.58;;;;;;;37.26;23.22;100621.39;1742344;82;21687;-81
2021/05/16 07:38:55;;;;;;;2.90;2.22;;;;;;;36.95;22.20;100613.98;1721315;82;20913;-81
2021/05/16 07:41:21;;;;;;;7.20;2.77;;;;;;;36.03;23.68;100618.36;1741673;82;20894;-81
2021/05/16 07:43:47;;;;;;;3.20;2.58;;;;;;;35.40;24.30;100622.84;1742328;82;21561;-81
2021/05/16 07:46:13;;;;;;;8.53;2.65;;;;;;;36.60;23.05;100615.06;1742450;82;21057;-81
2021/05/16 07:48:39;;;;;;;4.22;2.52;;;;;;;34.38;24.69;100615.12;1741812;82;20977;-81
2021/05/16 07:51:06;;;;;;;6.30;2.67;;;;;;;37.61;23.10;100606.81;1742396;82;21207;-81
2021/05/16 07:53:32;;;;;;;3.47;2.50;;;;;;;37.43;21.96;100609.48;1742178;82;21109;-81
2021/05/16 07:55:58;;;;;;;9.53;2.55;;;;;;;35.41;23.91;100610.39;1741640;82;21021;-81
2021/05/16 07:58:26;;;;;;;4.78;2.30;;;;;;;36.43;23.34;100612.66;1742030;82;21082;-81
2021/05/16 08:00:51;;;;;;;3.37;2.65;;;;;;;35.76;23.94;100603.13;1742163;82;21632;-81
2021/05/16 08:03:18;;;;;;;7.58;2.45;;;;;;;37.23;23.79;100601.20;1742394;82;21057;-80
2021/05/16 08:05:44;;;;;;;5.55;2.72;;;;;;;37.24;22.81;100597.17;1742008;82;20958;-80
2021/05/16 08:08:09;;;;;;;6.58;2.45;;;;;;;38.90;22.56;100598.56;1741714;82;20922;-82
2021/05/16 08:10:35;;;;;;;18.82;3.22;;;;;;;40.94;20.20;100590.03;1742520;82;20953;-81
2021/05/16 08:13:01;;;;;;;6.10;2.30;;;;;;;38.68;21.31;100595.05;1742128;82;20894;-81
2021/05/16 08:15:27;;;;;;;6.03;2.45;;;;;;;38.62;22.03;100599.06;1742518;82;21757;-81
2021/05/16 08:17:53;;;;;;;3.58;2.20;;;;;;;38.90;21.71;100596.52;1742793;81;21021;-81
2021/05/16 08:20:20;;;;;;;5.97;2.47;;;;;;;38.92;22.31;100597.48;1745559;81;21053;-81
2021/05/16 08:22:46;;;;;;;6.95;2.60;;;;;;;40.27;20.63;100587.41;1752665;81;21065;-81
2021/05/16 08:25:14;;;;;;;4.45;2.42;;;;;;;40.28;20.48;100594.62;1753007;81;21440;-81
2021/05/16 08:27:41;;;;;;;4.87;2.30;;;;;;;40.00;19.53;100585.84;1752710;81;21714;-81
2021/05/16 08:30:08;;;;;;;3.25;2.30;;;;;;;39.33;19.31;100597.04;1734682;81;21463;-81
2021/05/16 08:32:34;;;;;;;6.33;2.65;;;;;;;36.38;21.41;100591.51;1742762;82;21644;-82
2021/05/16 08:35:01;;;;;;;3.98;2.20;;;;;;;36.27;23.07;100588.98;1721173;82;21033;-81
2021/05/16 08:37:28;;;;;;;5.35;2.37;;;;;;;35.08;24.11;100593.23;1742789;82;21069;-81
2021/05/16 08:39:54;;;;;;;6.30;1.90;;;;;;;34.57;24.72;100591.89;1716709;83;21158;-81
2021/05/16 08:42:20;;;;;;;4.20;2.00;;;;;;;33.44;26.05;100585.41;1716770;83;20942;-82
2021/05/16 08:44:47;;;;;;;3.45;1.95;;;;;;;32.88;26.05;100579.77;1716852;83;21048;-81
2021/05/16 08:47:16;;;;;;;5.87;1.82;;;;;;;33.78;26.48;100570.62;1717258;83;21042;-81
2021/05/16 08:49:43;;;;;;;4.80;1.80;;;;;;;32.93;25.58;100568.95;1712996;83;21118;-81
2021/05/16 08:52:09;;;;;;;5.78;1.92;;;;;;;32.32;26.23;100573.61;1717121;83;21102;-81
2021/05/16 08:54:35;;;;;;;4.45;1.90;;;;;;;32.57;26.34;100567.09;1716911;83;21564;-81
2021/05/16 08:57:01;;;;;;;2.37;1.47;;;;;;;32.28;26.84;100565.87;1717146;83;20908;-82
2021/05/16 08:59:27;;;;;;;3.95;1.70;;;;;;;32.51;27.81;100565.34;1716850;83;20856;-82
2021/05/16 09:01:56;;;;;;;3.75;1.70;;;;;;;32.17;27.33;100564.37;1712827;83;21062;-82
2021/05/16 09:04:38;;;;;;;5.15;1.57;;;;;;;32.30;27.37;100555.72;1716867;83;21051;-81
2021/05/16 09:07:05;;;;;;;3.92;1.60;;;;;;;33.56;26.40;100563.72;1717153;83;21015;-81
2021/05/16 09:09:39;;;;;;;4.08;1.50;;;;;;;34.19;24.61;100558.48;1716928;83;21515;-81
2021/05/16 09:12:10;;;;;;;2.25;1.60;;;;;;;34.98;24.00;100555.16;1693579;83;21007;-81
2021/05/16 09:14:57;;;;;;;5.20;1.60;;;;;;;34.04;23.92;100549.52;1716864;83;21027;-81
2021/05/16 09:17:33;;;;;;;12.82;2.05;;;;;;;33.31;25.21;100542.44;1717146;83;21296;-81
2021/05/16 09:20:06;;;;;;;4.42;1.50;;;;;;;33.05;24.90;100536.94;1716896;83;21499;-81
2021/05/16 09:22:44;;;;;;;6.90;1.57;;;;;;;33.90;25.05;100530.11;1685772;84;21044;-81
2021/05/16 09:25:24;;;;;;;4.58;1.45;;;;;;;34.23;25.56;100527.64;1685701;84;21069;-81
2021/05/16 09:27:54;;;;;;;6.97;1.72;;;;;;;33.12;26.42;100531.87;1685046;85;21664;-81
2021/05/16 09:30:30;;;;;;;3.55;1.80;;;;;;;31.98;26.71;100528.05;1639408;87;21238;-81
2021/05/16 09:33:04;;;;;;;5.17;1.60;;;;;;;31.97;27.88;100522.27;1639026;87;21530;-81
2021/05/16 09:35:36;;;;;;;3.75;1.55;;;;;;;31.42;27.49;100527.92;1639151;87;21046;-81
2021/05/16 09:38:21;;;;;;;2.87;1.35;;;;;;;31.34;28.67;100531.89;1619781;88;21053;-81
2021/05/16 09:40:56;;;;;;;3.27;1.42;;;;;;;30.10;29.51;100532.96;1619756;88;21082;-82
2021/05/16 09:43:31;;;;;;;6.53;1.65;;;;;;;30.62;29.58;100516.73;1598455;88;21844;-82
2021/05/16 09:46:06;;;;;;;3.70;1.60;;;;;;;31.05;28.36;100511.70;1618969;88;20986;-81
2021/05/16 09:48:38;;;;;;;10.63;2.05;;;;;;;31.66;28.31;100509.49;1617948;88;21652;-81
2021/05/16 09:51:25;;;;;;;6.90;1.50;;;;;;;30.65;28.57;100512.33;1618029;88;21092;-81
2021/05/16 09:54:06;;;;;;;3.40;1.55;;;;;;;30.67;29.20;100509.34;1617782;88;21724;-84
2021/05/16 09:56:38;;;;;;;6.33;1.50;;;;;;;30.27;30.02;100506.41;1617644;88;21446;-84
2021/05/16 09:59:10;;;;;;;10.48;1.77;;;;;;;29.38;32.52;100512.47;1620849;86;21068;-84
2021/05/16 10:01:37;;;;;;;7.33;1.60;;;;;;;29.38;32.52;100512.47;1622144;87;21038;-81
2021/05/16 10:04:05;;;;;;;5.87;1.45;;;;;;;29.70;32.58;100508.45;1643501;87;21030;-81
2021/05/16 10:06:33;;;;;;;7.05;1.70;;;;;;;29.82;30.59;100502.52;1643573;87;21066;-81
2021/05/16 10:08:59;;;;;;;6.53;1.35;;;;;;;29.82;30.82;100492.80;1643569;87;21137;-81
2021/05/16 10:11:30;;;;;;;3.62;1.22;;;;;;;29.82;30.72;100490.02;1643563;87;21042;-81
2021/05/16 10:14:19;;;;;;;5.55;1.60;;;;;;;30.59;30.39;100486.92;1584526;90;21050;-82
2021/05/16 10:16:48;;;;;;;6.42;1.52;;;;;;;31.39;28.97;100477.20;1582439;89;21106;-82
2021/05/16 10:19:20;;;;;;;4.35;1.57;;;;;;;31.27;28.96;100477.02;1574045;91;21061;-81
2021/05/16 10:22:03;;;;;;;4.05;1.87;;;;;;;30.76;29.46;100473.55;1574245;91;21502;-81
2021/05/16 10:24:47;;;;;;;9.05;1.80;;;;;;;31.29;28.71;100469.64;1573616;91;21121;-81
2021/05/16 10:27:26;;;;;;;5.97;1.60;;;;;;;30.86;30.54;100467.03;1591743;89;21614;-82
2021/05/16 10:30:09;;;;;;;3.05;1.50;;;;;;;29.69;30.75;100472.74;1610068;89;21092;-82
2021/05/16 10:32:50;;;;;;;;;;;;;;;30.00;30.42;100472.58;1612236;89;21743;-82
2021/05/16 10:35:19;;;;;;;9.08;1.67;;;;;;;29.60;32.29;100468.92;1608084;89;21195;-81
2021/05/16 10:37:53;;;;;;;7.35;1.70;;;;;;;30.25;31.01;100457.34;1583102;90;21121;-82
2021/05/16 10:40:36;;;;;;;5.05;1.65;;;;;;;30.14;30.14;100455.91;1576790;90;21233;-82
2021/05/16 10:43:05;;;;;;;9.90;1.40;;;;;;;30.68;30.20;100450.32;1583429;89;21628;-82
2021/05/16 10:45:35;;;;;;;5.08;1.55;;;;;;;31.27;29.02;100451.96;1556180;90;21114;-83
2021/05/16 10:48:15;;;;;;;5.28;1.60;;;;;;;30.69;29.57;100449.94;1573123;91;21206;-85
2021/05/16 10:50:57;;;;;;;7.15;1.70;;;;;;;29.94;29.52;100451.33;1571758;91;21299;-84
2021/05/16 10:53:34;;;;;;;6.13;1.60;;;;;;;30.09;30.41;100441.02;1570417;91;21614;-85
2021/05/16 10:56:14;;;;;;;1.92;1.20;;;;;;;30.22;31.89;100435.90;1571698;91;21095;-84
2021/05/16 10:58:49;;;;;;;2.83;1.30;;;;;;;30.55;29.62;100430.48;1544766;92;21085;-84
2021/05/16 11:01:32;;;;;;;6.50;1.60;;;;;;;30.16;28.87;100434.68;1544883;92;21212;-84
2021/05/16 11:04:01;;;;;;;12.37;1.35;;;;;;;30.61;30.16;100426.09;1544119;92;21152;-85
2021/05/16 11:06:46;;;;;;;10.58;1.42;;;;;;;29.83;30.01;100421.38;1514189;94;21027;-85
2021/05/16 11:09:14;;;;;;;2.50;1.10;;;;;;;30.95;29.73;100420.87;1516019;94;21087;-85
2021/05/16 11:11:52;;;;;;;5.00;1.40;;;;;;;29.79;29.50;100423.34;1580800;89;21131;-85
2021/05/16 11:14:34;;;;;;;6.28;1.50;;;;;;;30.13;29.86;100414.03;1564573;90;21635;-85
2021/05/16 11:17:07;;;;;;;5.53;1.27;;;;;;;29.90;30.13;100414.42;1564468;89;21079;-83
2021/05/16 11:19:38;;;;;;;3.58;1.50;;;;;;;30.12;29.90;100406.89;1555038;89;21790;-84
2021/05/16 11:22:15;;;;;;;2.77;1.32;;;;;;;29.83;29.01;100406.87;1574437;89;21091;-83